sensor_id;sensor_type;location;lat;lon;timestamp;noise_LAeq;noise_LA_min;noise_LA_max;noise_LA01;noise_LA95
43512;Laerm;34054;52.100;5.116;2023-06-22T00:00:19;31.86;29.38;33.93;;
43512;Laerm;34054;52.100;5.116;2023-06-22T00:00:54;31.78;29.61;33.41;;
43512;Laerm;34054;52.100;5.116;2023-06-22T00:01:25;31.81;29.53;33.64;;
43512;Laerm;34054;52.100;5.116;2023-06-22T00:01:58;31.79;29.61;33.72;;
43512;Laerm;34054;52.100;5.116;2023-06-22T00:02:30;31.80;29.53;33.50;;
43512;Laerm;34054;52.100;5.116;2023-06-22T00:03:01;31.81;29.59;33.49;;
43512;Laerm;34054;52.100;5.116;2023-06-22T00:03:34;31.79;29.47;33.56;;
43512;Laerm;34054;52.100;5.116;2023-06-22T00:04:06;31.82;29.56;33.50;;
43512;Laerm;34054;52.100;5.116;2023-06-22T00:04:37;31.80;29.37;33.83;;
43512;Laerm;34054;52.100;5.116;2023-06-22T00:05:10;31.77;29.66;33.60;;
43512;Laerm;34054;52.100;5.116;2023-06-22T00:05:41;31.83;29.53;33.43;;
43512;Laerm;34054;52.100;5.116;2023-06-22T00:06:13;31.79;29.49;33.36;;
43512;Laerm;34054;52.100;5.116;2023-06-22T00:06:45;31.77;29.43;33.55;;
43512;Laerm;34054;52.100;5.116;2023-06-22T00:07:17;31.78;29.66;33.53;;
43512;Laerm;34054;52.100;5.116;2023-06-22T00:07:48;31.88;29.77;33.66;;
43512;Laerm;34054;52.100;5.116;2023-06-22T00:08:21;31.78;29.68;33.71;;
43512;Laerm;34054;52.100;5.116;2023-06-22T00:08:53;31.83;29.42;33.54;;
43512;Laerm;34054;52.100;5.116;2023-06-22T00:09:25;31.79;29.74;33.56;;
43512;Laerm;34054;52.100;5.116;2023-06-22T00:09:57;32.14;29.84;35.63;;
43512;Laerm;34054;52.100;5.116;2023-06-22T00:10:28;31.81;29.63;33.59;;
43512;Laerm;34054;52.100;5.116;2023-06-22T00:11:00;31.82;29.65;33.78;;
43512;Laerm;34054;52.100;5.116;2023-06-22T00:11:33;31.78;29.49;33.54;;
43512;Laerm;34054;52.100;5.116;2023-06-22T00:12:06;31.80;29.57;33.57;;
43512;Laerm;34054;52.100;5.116;2023-06-22T00:12:38;31.79;29.50;33.51;;
43512;Laerm;34054;52.100;5.116;2023-06-22T00:13:11;31.80;29.17;33.79;;
43512;Laerm;34054;52.100;5.116;2023-06-22T00:13:43;31.83;29.65;33.65;;
43512;Laerm;34054;52.100;5.116;2023-06-22T00:14:14;31.81;29.40;33.52;;
43512;Laerm;34054;52.100;5.116;2023-06-22T00:14:47;31.77;29.49;33.70;;
43512;Laerm;34054;52.100;5.116;2023-06-22T00:15:19;31.80;29.58;33.50;;
43512;Laerm;34054;52.100;5.116;2023-06-22T00:15:50;32.66;29.51;40.51;;
43512;Laerm;34054;52.100;5.116;2023-06-22T00:16:23;31.73;29.35;33.68;;
43512;Laerm;34054;52.100;5.116;2023-06-22T00:16:56;31.78;29.71;33.76;;
43512;Laerm;34054;52.100;5.116;2023-06-22T00:17:28;31.81;29.46;33.60;;
43512;Laerm;34054;52.100;5.116;2023-06-22T00:18:10;31.54;29.62;33.34;;
43512;Laerm;34054;52.100;5.116;2023-06-22T00:18:43;31.74;29.42;33.48;;
43512;Laerm;34054;52.100;5.116;2023-06-22T00:19:18;31.68;29.61;33.56;;
43512;Laerm;34054;52.100;5.116;2023-06-22T00:19:50;32.25;29.22;39.60;;
43512;Laerm;34054;52.100;5.116;2023-06-22T00:20:24;31.77;29.67;33.65;;
43512;Laerm;34054;52.100;5.116;2023-06-22T00:20:59;31.78;29.59;33.48;;
43512;Laerm;34054;52.100;5.116;2023-06-22T00:21:31;31.93;29.45;34.51;;
43512;Laerm;34054;52.100;5.116;2023-06-22T00:22:04;31.80;29.62;33.78;;
43512;Laerm;34054;52.100;5.116;2023-06-22T00:22:35;32.01;29.73;34.26;;
43512;Laerm;34054;52.100;5.116;2023-06-22T00:23:09;31.84;29.83;33.46;;
43512;Laerm;34054;52.100;5.116;2023-06-22T00:23:42;31.82;29.72;33.61;;
43512;Laerm;34054;52.100;5.116;2023-06-22T00:24:14;31.87;29.79;33.81;;
43512;Laerm;34054;52.100;5.116;2023-06-22T00:24:46;31.83;29.55;33.49;;
43512;Laerm;34054;52.100;5.116;2023-06-22T00:25:21;31.77;29.54;37.30;;
43512;Laerm;34054;52.100;5.116;2023-06-22T00:25:52;32.09;29.68;45.72;;
43512;Laerm;34054;52.100;5.116;2023-06-22T00:26:24;31.82;29.57;33.41;;
43512;Laerm;34054;52.100;5.116;2023-06-22T00:26:57;32.06;29.62;35.58;;
43512;Laerm;34054;52.100;5.116;2023-06-22T00:27:28;31.83;29.80;33.45;;
43512;Laerm;34054;52.100;5.116;2023-06-22T00:28:01;31.84;29.44;33.65;;
43512;Laerm;34054;52.100;5.116;2023-06-22T00:28:33;31.81;29.50;33.73;;
43512;Laerm;34054;52.100;5.116;2023-06-22T00:29:06;31.80;29.74;33.61;;
43512;Laerm;34054;52.100;5.116;2023-06-22T00:29:38;31.78;29.49;33.34;;
43512;Laerm;34054;52.100;5.116;2023-06-22T00:30:14;31.78;29.70;33.79;;
43512;Laerm;34054;52.100;5.116;2023-06-22T00:30:49;31.61;29.57;33.69;;
43512;Laerm;34054;52.100;5.116;2023-06-22T00:31:20;31.78;29.42;33.70;;
43512;Laerm;34054;52.100;5.116;2023-06-22T00:31:53;31.77;29.66;33.56;;
43512;Laerm;34054;52.100;5.116;2023-06-22T00:32:26;31.74;29.47;33.66;;
43512;Laerm;34054;52.100;5.116;2023-06-22T00:32:58;31.81;29.60;33.62;;
43512;Laerm;34054;52.100;5.116;2023-06-22T00:33:30;31.82;29.67;33.58;;
43512;Laerm;34054;52.100;5.116;2023-06-22T00:34:03;31.75;29.58;34.04;;
43512;Laerm;34054;52.100;5.116;2023-06-22T00:34:34;31.79;29.55;33.43;;
43512;Laerm;34054;52.100;5.116;2023-06-22T00:35:07;31.82;29.73;33.64;;
43512;Laerm;34054;52.100;5.116;2023-06-22T00:35:40;31.73;29.68;33.63;;
43512;Laerm;34054;52.100;5.116;2023-06-22T00:36:12;31.80;29.56;33.51;;
43512;Laerm;34054;52.100;5.116;2023-06-22T00:36:47;31.81;29.48;39.86;;
43512;Laerm;34054;52.100;5.116;2023-06-22T00:37:20;51.09;29.55;70.74;;
43512;Laerm;34054;52.100;5.116;2023-06-22T00:37:58;31.64;29.31;33.80;;
43512;Laerm;34054;52.100;5.116;2023-06-22T00:38:31;31.70;29.39;33.60;;
43512;Laerm;34054;52.100;5.116;2023-06-22T00:39:04;31.79;29.38;33.78;;
43512;Laerm;34054;52.100;5.116;2023-06-22T00:39:37;31.77;29.57;33.57;;
43512;Laerm;34054;52.100;5.116;2023-06-22T00:40:10;31.75;29.52;33.59;;
43512;Laerm;34054;52.100;5.116;2023-06-22T00:40:44;31.68;29.35;33.57;;
43512;Laerm;34054;52.100;5.116;2023-06-22T00:41:16;31.76;29.78;33.51;;
43512;Laerm;34054;52.100;5.116;2023-06-22T00:41:48;31.87;29.47;34.10;;
43512;Laerm;34054;52.100;5.116;2023-06-22T00:42:21;31.78;29.56;33.59;;
43512;Laerm;34054;52.100;5.116;2023-06-22T00:42:52;31.80;29.65;33.54;;
43512;Laerm;34054;52.100;5.116;2023-06-22T00:43:24;31.78;29.45;33.61;;
43512;Laerm;34054;52.100;5.116;2023-06-22T00:43:56;31.78;29.60;33.53;;
43512;Laerm;34054;52.100;5.116;2023-06-22T00:44:28;31.80;29.65;33.77;;
43512;Laerm;34054;52.100;5.116;2023-06-22T00:45:00;31.78;29.58;33.50;;
43512;Laerm;34054;52.100;5.116;2023-06-22T00:45:35;31.67;29.57;33.72;;
43512;Laerm;34054;52.100;5.116;2023-06-22T00:46:06;31.77;29.44;33.40;;
43512;Laerm;34054;52.100;5.116;2023-06-22T00:46:38;31.82;29.44;33.53;;
43512;Laerm;34054;52.100;5.116;2023-06-22T00:47:15;31.68;29.70;33.58;;
43512;Laerm;34054;52.100;5.116;2023-06-22T00:47:47;31.73;29.65;33.59;;
43512;Laerm;34054;52.100;5.116;2023-06-22T00:48:19;31.80;29.41;33.71;;
43512;Laerm;34054;52.100;5.116;2023-06-22T00:48:52;31.72;29.56;33.58;;
43512;Laerm;34054;52.100;5.116;2023-06-22T00:49:24;31.81;29.60;33.39;;
43512;Laerm;34054;52.100;5.116;2023-06-22T00:49:56;31.76;29.59;33.33;;
43512;Laerm;34054;52.100;5.116;2023-06-22T00:50:32;31.71;29.56;33.41;;
43512;Laerm;34054;52.100;5.116;2023-06-22T00:51:06;31.65;29.44;34.05;;
43512;Laerm;34054;52.100;5.116;2023-06-22T00:51:38;31.77;29.60;33.48;;
43512;Laerm;34054;52.100;5.116;2023-06-22T00:52:11;31.73;29.65;33.47;;
43512;Laerm;34054;52.100;5.116;2023-06-22T00:52:45;31.69;29.68;33.53;;
43512;Laerm;34054;52.100;5.116;2023-06-22T00:53:18;31.74;29.60;33.36;;
43512;Laerm;34054;52.100;5.116;2023-06-22T00:53:50;31.81;29.78;33.71;;
43512;Laerm;34054;52.100;5.116;2023-06-22T00:54:24;31.68;29.40;33.55;;
43512;Laerm;34054;52.100;5.116;2023-06-22T00:54:57;31.79;29.61;33.63;;
43512;Laerm;34054;52.100;5.116;2023-06-22T00:55:32;32.08;29.64;34.59;;
43512;Laerm;34054;52.100;5.116;2023-06-22T00:56:08;32.44;29.64;36.63;;
43512;Laerm;34054;52.100;5.116;2023-06-22T00:56:43;32.14;29.98;33.89;;
43512;Laerm;34054;52.100;5.116;2023-06-22T00:57:20;31.63;29.60;33.48;;
43512;Laerm;34054;52.100;5.116;2023-06-22T00:57:52;31.73;29.60;33.33;;
43512;Laerm;34054;52.100;5.116;2023-06-22T00:58:27;31.69;29.51;33.69;;
43512;Laerm;34054;52.100;5.116;2023-06-22T00:59:00;31.73;29.58;33.55;;
43512;Laerm;34054;52.100;5.116;2023-06-22T00:59:34;31.76;29.47;33.45;;
43512;Laerm;34054;52.100;5.116;2023-06-22T01:00:08;31.72;29.61;33.52;;
43512;Laerm;34054;52.100;5.116;2023-06-22T01:00:51;31.41;29.51;34.25;;
43512;Laerm;34054;52.100;5.116;2023-06-22T01:01:23;31.72;29.49;33.47;;
43512;Laerm;34054;52.100;5.116;2023-06-22T01:01:56;31.63;29.69;33.46;;
43512;Laerm;34054;52.100;5.116;2023-06-22T01:02:29;31.64;29.44;33.32;;
43512;Laerm;34054;52.100;5.116;2023-06-22T01:03:03;31.87;29.55;35.83;;
43512;Laerm;34054;52.100;5.116;2023-06-22T01:03:40;31.68;29.45;35.99;;
43512;Laerm;34054;52.100;5.116;2023-06-22T01:04:14;31.75;29.65;33.72;;
43512;Laerm;34054;52.100;5.116;2023-06-22T01:04:46;31.65;29.58;33.74;;
43512;Laerm;34054;52.100;5.116;2023-06-22T01:05:20;31.64;29.58;33.30;;
43512;Laerm;34054;52.100;5.116;2023-06-22T01:06:00;31.49;29.43;33.36;;
43512;Laerm;34054;52.100;5.116;2023-06-22T01:06:45;31.33;29.49;33.37;;
43512;Laerm;34054;52.100;5.116;2023-06-22T01:07:30;31.40;29.49;33.46;;
43512;Laerm;34054;52.100;5.116;2023-06-22T01:08:16;31.42;29.44;34.11;;
43512;Laerm;34054;52.100;5.116;2023-06-22T01:09:06;31.22;29.32;33.52;;
43512;Laerm;34054;52.100;5.116;2023-06-22T01:09:58;31.22;29.44;33.45;;
43512;Laerm;34054;52.100;5.116;2023-06-22T01:10:41;31.36;29.16;33.88;;
43512;Laerm;34054;52.100;5.116;2023-06-22T01:11:21;31.39;29.21;33.52;;
43512;Laerm;34054;52.100;5.116;2023-06-22T01:12:02;31.40;29.51;33.23;;
43512;Laerm;34054;52.100;5.116;2023-06-22T01:12:43;31.40;29.39;33.31;;
43512;Laerm;34054;52.100;5.116;2023-06-22T01:13:28;31.29;29.55;33.36;;
43512;Laerm;34054;52.100;5.116;2023-06-22T01:14:12;31.30;29.27;33.45;;
43512;Laerm;34054;52.100;5.116;2023-06-22T01:14:55;31.34;29.13;33.43;;
43512;Laerm;34054;52.100;5.116;2023-06-22T01:15:35;31.38;29.25;33.19;;
43512;Laerm;34054;52.100;5.116;2023-06-22T01:16:14;31.40;29.40;34.40;;
43512;Laerm;34054;52.100;5.116;2023-06-22T01:16:49;31.57;29.18;34.24;;
43512;Laerm;34054;52.100;5.116;2023-06-22T01:17:24;31.50;29.27;33.33;;
43512;Laerm;34054;52.100;5.116;2023-06-22T01:18:03;31.42;29.41;33.21;;
43512;Laerm;34054;52.100;5.116;2023-06-22T01:18:40;31.49;29.48;33.57;;
43512;Laerm;34054;52.100;5.116;2023-06-22T01:19:32;31.24;29.25;33.58;;
43512;Laerm;34054;52.100;5.116;2023-06-22T01:20:09;31.40;29.40;33.32;;
43512;Laerm;34054;52.100;5.116;2023-06-22T01:20:44;31.55;29.43;33.35;;
43512;Laerm;34054;52.100;5.116;2023-06-22T01:21:19;31.58;29.44;33.39;;
43512;Laerm;34054;52.100;5.116;2023-06-22T01:21:58;31.46;29.28;33.61;;
43512;Laerm;34054;52.100;5.116;2023-06-22T01:22:43;31.53;29.31;35.39;;
43512;Laerm;34054;52.100;5.116;2023-06-22T01:23:37;31.26;29.27;33.48;;
43512;Laerm;34054;52.100;5.116;2023-06-22T01:24:21;31.54;29.35;33.70;;
43512;Laerm;34054;52.100;5.116;2023-06-22T01:25:08;31.25;29.32;33.30;;
43512;Laerm;34054;52.100;5.116;2023-06-22T01:25:53;31.27;29.35;33.71;;
43512;Laerm;34054;52.100;5.116;2023-06-22T01:26:38;31.26;29.52;33.27;;
43512;Laerm;34054;52.100;5.116;2023-06-22T01:27:28;31.15;29.18;33.60;;
43512;Laerm;34054;52.100;5.116;2023-06-22T01:28:17;31.18;28.92;33.17;;
43512;Laerm;34054;52.100;5.116;2023-06-22T01:28:55;31.21;29.41;33.50;;
43512;Laerm;34054;52.100;5.116;2023-06-22T01:29:30;31.46;29.45;33.30;;
43512;Laerm;34054;52.100;5.116;2023-06-22T01:30:06;31.44;29.26;33.33;;
43512;Laerm;34054;52.100;5.116;2023-06-22T01:30:41;31.44;29.29;33.31;;
43512;Laerm;34054;52.100;5.116;2023-06-22T01:31:17;31.45;29.13;33.42;;
43512;Laerm;34054;52.100;5.116;2023-06-22T01:31:52;31.48;29.28;33.66;;
43512;Laerm;34054;52.100;5.116;2023-06-22T01:32:28;31.45;29.26;33.39;;
43512;Laerm;34054;52.100;5.116;2023-06-22T01:33:05;31.42;29.46;35.92;;
43512;Laerm;34054;52.100;5.116;2023-06-22T01:33:42;31.41;29.42;33.19;;
43512;Laerm;34054;52.100;5.116;2023-06-22T01:34:15;31.46;28.96;33.25;;
43512;Laerm;34054;52.100;5.116;2023-06-22T01:34:51;31.44;29.21;33.28;;
43512;Laerm;34054;52.100;5.116;2023-06-22T01:35:25;31.50;29.21;33.63;;
43512;Laerm;34054;52.100;5.116;2023-06-22T01:35:58;31.45;29.36;33.30;;
43512;Laerm;34054;52.100;5.116;2023-06-22T01:36:33;31.42;29.39;33.40;;
43512;Laerm;34054;52.100;5.116;2023-06-22T01:37:07;31.41;29.26;33.23;;
43512;Laerm;34054;52.100;5.116;2023-06-22T01:37:39;31.48;29.18;33.23;;
43512;Laerm;34054;52.100;5.116;2023-06-22T01:38:11;31.52;29.27;33.34;;
43512;Laerm;34054;52.100;5.116;2023-06-22T01:38:45;31.42;29.35;33.46;;
43512;Laerm;34054;52.100;5.116;2023-06-22T01:39:18;31.45;29.20;33.15;;
43512;Laerm;34054;52.100;5.116;2023-06-22T01:39:51;31.47;29.30;33.29;;
43512;Laerm;34054;52.100;5.116;2023-06-22T01:40:25;31.44;29.32;33.17;;
43512;Laerm;34054;52.100;5.116;2023-06-22T01:40:58;31.48;29.28;33.41;;
43512;Laerm;34054;52.100;5.116;2023-06-22T01:41:37;31.35;29.11;33.22;;
43512;Laerm;34054;52.100;5.116;2023-06-22T01:42:10;31.40;29.14;33.45;;
43512;Laerm;34054;52.100;5.116;2023-06-22T01:42:44;31.44;29.31;33.15;;
43512;Laerm;34054;52.100;5.116;2023-06-22T01:43:16;31.53;29.25;33.38;;
43512;Laerm;34054;52.100;5.116;2023-06-22T01:43:49;31.48;29.05;33.39;;
43512;Laerm;34054;52.100;5.116;2023-06-22T01:44:26;31.39;29.33;33.43;;
43512;Laerm;34054;52.100;5.116;2023-06-22T01:45:02;31.42;29.36;33.46;;
43512;Laerm;34054;52.100;5.116;2023-06-22T01:45:34;31.46;29.18;33.25;;
43512;Laerm;34054;52.100;5.116;2023-06-22T01:46:06;31.46;28.98;33.21;;
43512;Laerm;34054;52.100;5.116;2023-06-22T01:46:40;31.43;29.20;33.16;;
43512;Laerm;34054;52.100;5.116;2023-06-22T01:47:12;31.43;29.06;33.36;;
43512;Laerm;34054;52.100;5.116;2023-06-22T01:47:45;31.43;29.40;33.13;;
43512;Laerm;34054;52.100;5.116;2023-06-22T01:48:19;31.40;29.26;33.24;;
43512;Laerm;34054;52.100;5.116;2023-06-22T01:48:52;31.42;29.33;33.40;;
43512;Laerm;34054;52.100;5.116;2023-06-22T01:49:25;31.43;29.35;33.21;;
43512;Laerm;34054;52.100;5.116;2023-06-22T01:49:58;31.38;29.13;33.30;;
43512;Laerm;34054;52.100;5.116;2023-06-22T01:50:30;31.46;29.16;33.25;;
43512;Laerm;34054;52.100;5.116;2023-06-22T01:51:02;31.47;29.24;33.23;;
43512;Laerm;34054;52.100;5.116;2023-06-22T01:51:34;31.46;29.23;33.14;;
43512;Laerm;34054;52.100;5.116;2023-06-22T01:52:07;31.42;29.34;33.54;;
43512;Laerm;34054;52.100;5.116;2023-06-22T01:52:39;31.46;29.02;33.52;;
43512;Laerm;34054;52.100;5.116;2023-06-22T01:53:11;31.45;29.23;33.19;;
43512;Laerm;34054;52.100;5.116;2023-06-22T01:53:43;31.41;29.25;33.42;;
43512;Laerm;34054;52.100;5.116;2023-06-22T01:54:17;31.38;29.14;33.21;;
43512;Laerm;34054;52.100;5.116;2023-06-22T01:54:49;31.43;29.18;33.68;;
43512;Laerm;34054;52.100;5.116;2023-06-22T01:55:22;31.37;29.34;33.22;;
43512;Laerm;34054;52.100;5.116;2023-06-22T01:55:54;31.43;28.99;33.12;;
43512;Laerm;34054;52.100;5.116;2023-06-22T01:56:27;31.38;29.22;33.02;;
43512;Laerm;34054;52.100;5.116;2023-06-22T01:57:00;31.32;29.22;33.27;;
43512;Laerm;34054;52.100;5.116;2023-06-22T01:57:32;31.34;28.96;33.01;;
43512;Laerm;34054;52.100;5.116;2023-06-22T01:58:04;31.38;29.15;33.36;;
43512;Laerm;34054;52.100;5.116;2023-06-22T01:58:43;31.20;28.91;33.13;;
43512;Laerm;34054;52.100;5.116;2023-06-22T01:59:27;31.14;29.14;33.29;;
43512;Laerm;34054;52.100;5.116;2023-06-22T02:00:04;31.06;28.91;33.07;;
43512;Laerm;34054;52.100;5.116;2023-06-22T02:00:40;31.15;29.19;32.91;;
43512;Laerm;34054;52.100;5.116;2023-06-22T02:01:22;31.09;28.99;33.24;;
43512;Laerm;34054;52.100;5.116;2023-06-22T02:02:01;31.00;29.07;33.08;;
43512;Laerm;34054;52.100;5.116;2023-06-22T02:02:43;31.03;29.08;33.39;;
43512;Laerm;34054;52.100;5.116;2023-06-22T02:03:23;31.15;29.11;33.49;;
43512;Laerm;34054;52.100;5.116;2023-06-22T02:04:06;31.05;29.28;33.03;;
43512;Laerm;34054;52.100;5.116;2023-06-22T02:04:47;31.12;29.13;33.04;;
43512;Laerm;34054;52.100;5.116;2023-06-22T02:05:20;31.18;28.96;33.32;;
43512;Laerm;34054;52.100;5.116;2023-06-22T02:06:03;31.16;29.21;33.40;;
43512;Laerm;34054;52.100;5.116;2023-06-22T02:06:39;31.17;29.25;33.07;;
43512;Laerm;34054;52.100;5.116;2023-06-22T02:07:17;31.25;29.15;33.41;;
43512;Laerm;34054;52.100;5.116;2023-06-22T02:07:59;31.24;29.08;33.12;;
43512;Laerm;34054;52.100;5.116;2023-06-22T02:08:40;31.22;28.98;33.21;;
43512;Laerm;34054;52.100;5.116;2023-06-22T02:09:16;31.54;29.19;34.94;;
43512;Laerm;34054;52.100;5.116;2023-06-22T02:09:53;31.29;28.96;33.02;;
43512;Laerm;34054;52.100;5.116;2023-06-22T02:10:28;31.29;29.33;33.20;;
43512;Laerm;34054;52.100;5.116;2023-06-22T02:11:03;31.36;29.24;33.17;;
43512;Laerm;34054;52.100;5.116;2023-06-22T02:11:38;31.37;29.39;33.49;;
43512;Laerm;34054;52.100;5.116;2023-06-22T02:12:13;31.30;29.41;33.12;;
43512;Laerm;34054;52.100;5.116;2023-06-22T02:12:51;31.28;29.01;33.70;;
43512;Laerm;34054;52.100;5.116;2023-06-22T02:13:24;31.41;29.22;33.24;;
43512;Laerm;34054;52.100;5.116;2023-06-22T02:13:58;31.39;29.03;33.41;;
43512;Laerm;34054;52.100;5.116;2023-06-22T02:14:34;31.28;29.20;33.54;;
43512;Laerm;34054;52.100;5.116;2023-06-22T02:15:09;31.41;29.06;33.68;;
43512;Laerm;34054;52.100;5.116;2023-06-22T02:15:42;31.38;29.28;33.47;;
43512;Laerm;34054;52.100;5.116;2023-06-22T02:16:16;31.41;29.31;33.20;;
43512;Laerm;34054;52.100;5.116;2023-06-22T02:16:50;31.36;29.21;33.45;;
43512;Laerm;34054;52.100;5.116;2023-06-22T02:17:24;31.38;28.99;33.51;;
43512;Laerm;34054;52.100;5.116;2023-06-22T02:17:57;31.42;29.27;33.10;;
43512;Laerm;34054;52.100;5.116;2023-06-22T02:18:29;31.49;29.44;33.80;;
43512;Laerm;34054;52.100;5.116;2023-06-22T02:19:02;31.41;29.43;33.24;;
43512;Laerm;34054;52.100;5.116;2023-06-22T02:19:36;31.37;29.40;33.61;;
43512;Laerm;34054;52.100;5.116;2023-06-22T02:20:12;31.36;29.26;34.12;;
43512;Laerm;34054;52.100;5.116;2023-06-22T02:20:45;31.41;29.41;33.36;;
43512;Laerm;34054;52.100;5.116;2023-06-22T02:21:17;31.44;29.13;33.79;;
43512;Laerm;34054;52.100;5.116;2023-06-22T02:21:49;31.45;29.25;33.65;;
43512;Laerm;34054;52.100;5.116;2023-06-22T02:22:22;34.10;29.19;45.85;;
43512;Laerm;34054;52.100;5.116;2023-06-22T02:22:55;34.07;29.31;45.70;;
43512;Laerm;34054;52.100;5.116;2023-06-22T02:23:26;34.21;29.32;46.01;;
43512;Laerm;34054;52.100;5.116;2023-06-22T02:23:59;34.23;29.33;47.47;;
43512;Laerm;34054;52.100;5.116;2023-06-22T02:24:31;34.48;29.33;45.42;;
43512;Laerm;34054;52.100;5.116;2023-06-22T02:25:04;34.93;29.30;47.70;;
43512;Laerm;34054;52.100;5.116;2023-06-22T02:25:37;33.99;29.32;46.51;;
43512;Laerm;34054;52.100;5.116;2023-06-22T02:26:10;34.30;29.08;45.44;;
43512;Laerm;34054;52.100;5.116;2023-06-22T02:26:43;34.44;29.26;47.59;;
43512;Laerm;34054;52.100;5.116;2023-06-22T02:27:16;34.30;29.32;47.54;;
43512;Laerm;34054;52.100;5.116;2023-06-22T02:27:48;34.25;29.34;46.14;;
43512;Laerm;34054;52.100;5.116;2023-06-22T02:28:20;34.00;29.18;45.23;;
43512;Laerm;34054;52.100;5.116;2023-06-22T02:28:52;34.69;29.22;47.31;;
43512;Laerm;34054;52.100;5.116;2023-06-22T02:29:24;34.73;29.38;47.85;;
43512;Laerm;34054;52.100;5.116;2023-06-22T02:29:57;34.26;28.93;46.49;;
43512;Laerm;34054;52.100;5.116;2023-06-22T02:30:29;33.94;29.20;46.83;;
43512;Laerm;34054;52.100;5.116;2023-06-22T02:31:02;34.54;29.33;46.92;;
43512;Laerm;34054;52.100;5.116;2023-06-22T02:31:33;34.41;29.31;45.84;;
43512;Laerm;34054;52.100;5.116;2023-06-22T02:32:07;34.12;29.18;47.49;;
43512;Laerm;34054;52.100;5.116;2023-06-22T02:32:39;34.67;29.46;45.91;;
43512;Laerm;34054;52.100;5.116;2023-06-22T02:33:13;34.54;29.11;46.04;;
43512;Laerm;34054;52.100;5.116;2023-06-22T02:33:46;34.02;29.27;45.34;;
43512;Laerm;34054;52.100;5.116;2023-06-22T02:34:19;34.03;29.19;47.88;;
43512;Laerm;34054;52.100;5.116;2023-06-22T02:34:52;33.87;29.21;45.54;;
43512;Laerm;34054;52.100;5.116;2023-06-22T02:35:25;34.49;29.22;48.32;;
43512;Laerm;34054;52.100;5.116;2023-06-22T02:35:57;34.20;29.33;46.48;;
43512;Laerm;34054;52.100;5.116;2023-06-22T02:36:29;34.55;29.24;44.72;;
43512;Laerm;34054;52.100;5.116;2023-06-22T02:37:04;34.44;29.34;45.93;;
43512;Laerm;34054;52.100;5.116;2023-06-22T02:37:37;34.43;29.17;44.38;;
43512;Laerm;34054;52.100;5.116;2023-06-22T02:38:09;32.84;29.12;45.07;;
43512;Laerm;34054;52.100;5.116;2023-06-22T02:38:42;32.00;29.27;40.84;;
43512;Laerm;34054;52.100;5.116;2023-06-22T02:39:20;31.58;29.04;41.33;;
43512;Laerm;34054;52.100;5.116;2023-06-22T02:39:53;31.37;29.27;33.27;;
43512;Laerm;34054;52.100;5.116;2023-06-22T02:40:25;31.47;29.27;33.87;;
43512;Laerm;34054;52.100;5.116;2023-06-22T02:40:58;31.48;29.51;33.41;;
43512;Laerm;34054;52.100;5.116;2023-06-22T02:41:33;31.58;29.21;33.74;;
43512;Laerm;34054;52.100;5.116;2023-06-22T02:42:05;31.48;29.42;33.46;;
43512;Laerm;34054;52.100;5.116;2023-06-22T02:42:39;31.50;29.18;33.49;;
43512;Laerm;34054;52.100;5.116;2023-06-22T02:43:11;31.47;29.41;33.60;;
43512;Laerm;34054;52.100;5.116;2023-06-22T02:43:43;31.49;29.28;33.77;;
43512;Laerm;34054;52.100;5.116;2023-06-22T02:44:15;31.55;29.22;33.72;;
43512;Laerm;34054;52.100;5.116;2023-06-22T02:44:48;31.67;29.36;34.38;;
43512;Laerm;34054;52.100;5.116;2023-06-22T02:45:21;31.60;29.09;34.91;;
43512;Laerm;34054;52.100;5.116;2023-06-22T02:45:53;31.39;29.11;33.79;;
43512;Laerm;34054;52.100;5.116;2023-06-22T02:46:26;36.79;29.23;50.94;;
43512;Laerm;34054;52.100;5.116;2023-06-22T02:46:58;33.95;28.74;44.92;;
43512;Laerm;34054;52.100;5.116;2023-06-22T02:47:32;34.75;29.40;45.94;;
43512;Laerm;34054;52.100;5.116;2023-06-22T02:48:05;34.35;29.67;46.09;;
43512;Laerm;34054;52.100;5.116;2023-06-22T02:48:37;31.35;28.67;33.23;;
43512;Laerm;34054;52.100;5.116;2023-06-22T02:49:09;31.51;29.14;35.16;;
43512;Laerm;34054;52.100;5.116;2023-06-22T02:49:41;31.87;29.07;37.56;;
43512;Laerm;34054;52.100;5.116;2023-06-22T02:50:13;31.60;29.32;36.39;;
43512;Laerm;34054;52.100;5.116;2023-06-22T02:50:46;31.41;29.09;33.39;;
43512;Laerm;34054;52.100;5.116;2023-06-22T02:51:18;31.38;29.18;33.20;;
43512;Laerm;34054;52.100;5.116;2023-06-22T02:51:52;31.55;29.15;33.82;;
43512;Laerm;34054;52.100;5.116;2023-06-22T02:52:26;31.39;29.27;33.38;;
43512;Laerm;34054;52.100;5.116;2023-06-22T02:52:58;31.37;29.22;33.01;;
43512;Laerm;34054;52.100;5.116;2023-06-22T02:53:29;31.44;29.20;33.61;;
43512;Laerm;34054;52.100;5.116;2023-06-22T02:54:02;31.56;29.22;34.96;;
43512;Laerm;34054;52.100;5.116;2023-06-22T02:54:35;31.47;28.74;33.15;;
43512;Laerm;34054;52.100;5.116;2023-06-22T02:55:07;31.34;29.16;33.15;;
43512;Laerm;34054;52.100;5.116;2023-06-22T02:55:39;31.44;29.14;34.58;;
43512;Laerm;34054;52.100;5.116;2023-06-22T02:56:12;31.35;29.21;33.34;;
43512;Laerm;34054;52.100;5.116;2023-06-22T02:56:44;31.37;29.06;33.23;;
43512;Laerm;34054;52.100;5.116;2023-06-22T02:57:15;31.40;28.79;34.03;;
43512;Laerm;34054;52.100;5.116;2023-06-22T02:57:48;31.67;28.89;38.76;;
43512;Laerm;34054;52.100;5.116;2023-06-22T02:58:24;31.25;28.86;33.31;;
43512;Laerm;34054;52.100;5.116;2023-06-22T02:58:55;31.40;29.20;33.09;;
43512;Laerm;34054;52.100;5.116;2023-06-22T02:59:32;32.73;29.07;51.33;;
43512;Laerm;34054;52.100;5.116;2023-06-22T03:00:06;33.20;29.25;46.24;;
43512;Laerm;34054;52.100;5.116;2023-06-22T03:00:49;32.36;29.19;47.48;;
43512;Laerm;34054;52.100;5.116;2023-06-22T03:01:24;33.35;28.95;47.60;;
43512;Laerm;34054;52.100;5.116;2023-06-22T03:01:56;33.08;29.35;47.93;;
43512;Laerm;34054;52.100;5.116;2023-06-22T03:02:27;32.65;28.77;46.02;;
43512;Laerm;34054;52.100;5.116;2023-06-22T03:03:00;34.27;28.82;51.84;;
43512;Laerm;34054;52.100;5.116;2023-06-22T03:03:32;34.68;29.09;51.35;;
43512;Laerm;34054;52.100;5.116;2023-06-22T03:04:03;33.17;29.29;46.97;;
43512;Laerm;34054;52.100;5.116;2023-06-22T03:04:36;32.65;29.43;44.80;;
43512;Laerm;34054;52.100;5.116;2023-06-22T03:05:08;32.89;29.44;41.38;;
43512;Laerm;34054;52.100;5.116;2023-06-22T03:05:45;31.61;29.21;40.63;;
43512;Laerm;34054;52.100;5.116;2023-06-22T03:06:17;31.72;29.35;41.45;;
43512;Laerm;34054;52.100;5.116;2023-06-22T03:06:54;31.53;29.17;42.23;;
43512;Laerm;34054;52.100;5.116;2023-06-22T03:07:26;31.94;29.24;43.87;;
43512;Laerm;34054;52.100;5.116;2023-06-22T03:07:58;31.92;29.02;40.38;;
43512;Laerm;34054;52.100;5.116;2023-06-22T03:08:30;31.60;29.21;39.90;;
43512;Laerm;34054;52.100;5.116;2023-06-22T03:09:04;31.44;28.90;40.05;;
43512;Laerm;34054;52.100;5.116;2023-06-22T03:09:37;31.35;29.01;40.03;;
43512;Laerm;34054;52.100;5.116;2023-06-22T03:10:10;31.85;29.10;41.96;;
43512;Laerm;34054;52.100;5.116;2023-06-22T03:10:42;31.58;29.15;42.56;;
43512;Laerm;34054;52.100;5.116;2023-06-22T03:11:17;31.63;28.87;43.03;;
43512;Laerm;34054;52.100;5.116;2023-06-22T03:11:49;31.40;29.05;37.96;;
43512;Laerm;34054;52.100;5.116;2023-06-22T03:12:21;31.37;29.00;37.23;;
43512;Laerm;34054;52.100;5.116;2023-06-22T03:12:54;31.76;29.17;38.59;;